createdAt,value
2023-04-03T00:01:46.015Z,102415.63
2023-04-03T00:04:12.461Z,102413.94
2023-04-03T00:06:38.934Z,102417.94
2023-04-03T00:09:05.330Z,102414.84
2023-04-03T00:11:31.682Z,102410.88
2023-04-03T00:13:58.062Z,102412.22
2023-04-03T00:16:24.502Z,102412.88
2023-04-03T00:18:50.917Z,102414.22
2023-04-03T00:21:17.633Z,102409.81
2023-04-03T00:23:44.022Z,102412.81
2023-04-03T00:26:10.530Z,102409.97
2023-04-03T00:28:36.933Z,102414.13
2023-04-03T00:31:03.920Z,102416.03
2023-04-03T00:33:30.332Z,102416.19
2023-04-03T00:35:56.735Z,102419.34
2023-04-03T00:38:23.253Z,102410.81
2023-04-03T00:40:50.801Z,102415.50
2023-04-03T00:43:27.285Z,102420.50
2023-04-03T00:45:56.099Z,102415.66
2023-04-03T00:48:33.512Z,102410.59
2023-04-03T00:51:01.345Z,102415.44
2023-04-03T00:53:36.467Z,102410.97
2023-04-03T00:56:06.737Z,102401.88
2023-04-03T00:58:45.532Z,102409.59
2023-04-03T01:01:16.956Z,102403.13
2023-04-03T01:03:43.421Z,102405.00
2023-04-03T01:06:09.934Z,102408.94
2023-04-03T01:08:36.562Z,102407.97
2023-04-03T01:11:03.027Z,102406.28
2023-04-03T01:13:32.339Z,102413.59
2023-04-03T01:16:04.453Z,102404.13
2023-04-03T01:18:31.938Z,102402.56
2023-04-03T01:21:36.826Z,102399.75
2023-04-03T01:24:27.742Z,102398.22
2023-04-03T01:26:54.222Z,102401.28
2023-04-03T01:29:20.919Z,102402.94
2023-04-03T01:31:53.350Z,102401.63
2023-04-03T01:34:20.474Z,102401.28
2023-04-03T01:36:46.953Z,102402.75
2023-04-03T01:39:13.481Z,102403.53
2023-04-03T01:41:39.975Z,102404.47
2023-04-03T01:44:06.477Z,102403.91
2023-04-03T01:46:32.999Z,102407.63
2023-04-03T01:48:59.461Z,102410.59
2023-04-03T01:51:26.066Z,102412.63
2023-04-03T01:53:52.589Z,102413.22
2023-04-03T01:56:18.928Z,102403.66
2023-04-03T01:58:45.277Z,102405.34
2023-04-03T02:01:11.663Z,102405.50
2023-04-03T02:03:38.066Z,102402.81
2023-04-03T02:06:04.617Z,102400.59
2023-04-03T02:08:31.093Z,102401.78
2023-04-03T02:10:57.774Z,102405.13
2023-04-03T02:13:24.123Z,102401.75
2023-04-03T02:15:50.517Z,102400.75
2023-04-03T02:18:17.533Z,102400.53
2023-04-03T02:20:43.931Z,102409.53
2023-04-03T02:23:10.608Z,102402.16
2023-04-03T02:25:38.553Z,102407.31
2023-04-03T02:28:05.904Z,102407.94
2023-04-03T02:30:32.250Z,102401.19
2023-04-03T02:32:58.653Z,102406.88
2023-04-03T02:35:25.368Z,102410.94
2023-04-03T02:37:51.947Z,102415.56
2023-04-03T02:40:18.474Z,102414.53
2023-04-03T02:42:44.851Z,102413.78
2023-04-03T02:45:11.580Z,102413.94
2023-04-03T02:47:38.024Z,102414.84
2023-04-03T02:50:04.715Z,102422.28
2023-04-03T02:52:31.107Z,102417.31
2023-04-03T02:54:57.426Z,102423.16
2023-04-03T02:57:23.808Z,102421.38
2023-04-03T02:59:50.285Z,102422.97
2023-04-03T03:02:16.622Z,102423.69
2023-04-03T03:04:43.711Z,102428.88
2023-04-03T03:07:10.416Z,102428.66
2023-04-03T03:09:37.099Z,102423.50
2023-04-03T03:12:03.656Z,102431.94
2023-04-03T03:14:30.132Z,102424.66
2023-04-03T03:16:56.588Z,102417.72
2023-04-03T03:19:22.983Z,102427.44
2023-04-03T03:21:49.445Z,102427.06
2023-04-03T03:24:16.821Z,102422.81
2023-04-03T03:26:43.566Z,102429.88
2023-04-03T03:29:10.028Z,102424.66
2023-04-03T03:31:36.763Z,102427.81
2023-04-03T03:34:03.167Z,102420.69
2023-04-03T03:36:29.616Z,102421.78
2023-04-03T03:38:56.068Z,102419.09
2023-04-03T03:41:22.528Z,102423.97
2023-04-03T03:43:48.894Z,102433.56
2023-04-03T03:46:15.297Z,102421.16
2023-04-03T03:48:41.798Z,102424.88
2023-04-03T03:51:08.170Z,102418.06
2023-04-03T03:53:34.908Z,102418.66
2023-04-03T03:56:01.416Z,102416.53
2023-04-03T03:58:27.836Z,102421.91
2023-04-03T04:00:54.169Z,102420.19
2023-04-03T04:03:20.681Z,102422.53
2023-04-03T04:05:47.089Z,102425.75
2023-04-03T04:08:13.473Z,102413.78
2023-04-03T04:10:40.229Z,102427.19
2023-04-03T04:13:06.678Z,102416.09
2023-04-03T04:15:32.998Z,102426.66
2023-04-03T04:17:59.401Z,102426.66
2023-04-03T04:20:25.953Z,102424.66
2023-04-03T04:22:52.460Z,102442.66
2023-04-03T04:25:18.863Z,102437.44
2023-04-03T04:27:45.279Z,102443.28
2023-04-03T04:30:12.402Z,102442.75
2023-04-03T04:32:38.796Z,102431.41
2023-04-03T04:35:05.881Z,102436.63
2023-04-03T04:37:32.417Z,102435.63
2023-04-03T04:39:58.928Z,102445.38
2023-04-03T04:42:25.569Z,102443.44
2023-04-03T04:44:51.940Z,102449.03
2023-04-03T04:47:18.498Z,102442.00
2023-04-03T04:49:45.014Z,102449.66
2023-04-03T04:52:11.479Z,102457.56
2023-04-03T04:54:37.829Z,102461.00
2023-04-03T04:57:04.324Z,102465.66
2023-04-03T04:59:30.696Z,102465.31
2023-04-03T05:01:57.106Z,102467.88
2023-04-03T05:04:23.794Z,102467.59
2023-04-03T05:06:50.222Z,102474.72
2023-04-03T05:09:16.950Z,102469.03
2023-04-03T05:11:43.984Z,102462.97
2023-04-03T05:14:10.451Z,102475.41
2023-04-03T05:16:37.217Z,102480.69
2023-04-03T05:19:04.092Z,102487.75
2023-04-03T05:21:33.416Z,102484.38
2023-04-03T05:24:03.452Z,102486.75
2023-04-03T05:26:31.621Z,102480.94
2023-04-03T05:28:58.106Z,102481.06
2023-04-03T05:31:24.827Z,102491.66
2023-04-03T05:33:51.360Z,102491.66
2023-04-03T05:36:17.698Z,102496.69
2023-04-03T05:38:44.457Z,102488.91
2023-04-03T05:41:12.229Z,102491.03
2023-04-03T05:43:39.840Z,102497.94
2023-04-03T05:46:13.773Z,102501.84
2023-04-03T05:48:40.818Z,102506.16
2023-04-03T05:51:10.709Z,102503.00
2023-04-03T05:53:40.351Z,102510.06
2023-04-03T05:56:06.815Z,102513.75
2023-04-03T05:58:33.161Z,102513.81
2023-04-03T06:00:59.524Z,102519.59
2023-04-03T06:03:26.507Z,102513.28
2023-04-03T06:05:53.204Z,102518.03
2023-04-03T06:08:19.657Z,102519.03
2023-04-03T06:10:46.588Z,102513.66
2023-04-03T06:13:13.467Z,102523.03
2023-04-03T06:15:41.312Z,102521.50
2023-04-03T06:18:07.924Z,102521.91
2023-04-03T06:20:34.692Z,102524.16
2023-04-03T06:23:01.427Z,102533.53
2023-04-03T06:25:27.777Z,102524.91
2023-04-03T06:27:56.357Z,102531.50
2023-04-03T06:30:22.842Z,102536.44
2023-04-03T06:32:49.347Z,102526.84
2023-04-03T06:35:16.102Z,102526.47
2023-04-03T06:37:42.762Z,102519.22
2023-04-03T06:40:20.881Z,102521.59
2023-04-03T06:42:47.594Z,102531.84
2023-04-03T06:45:13.996Z,102527.53
2023-04-03T06:47:40.417Z,102529.41
2023-04-03T06:50:07.914Z,102525.56
2023-04-03T06:52:34.309Z,102535.19
2023-04-03T06:55:01.318Z,102529.69
2023-04-03T06:57:27.808Z,102527.47
2023-04-03T06:59:54.310Z,102534.56
2023-04-03T07:02:21.748Z,102530.91
2023-04-03T07:04:48.592Z,102535.25
2023-04-03T07:07:15.651Z,102537.78
2023-04-03T07:09:45.202Z,102530.75
2023-04-03T07:12:11.806Z,102529.56
2023-04-03T07:14:38.175Z,102537.97
2023-04-03T07:17:04.549Z,102542.19
2023-04-03T07:19:31.488Z,102542.03
2023-04-03T07:21:58.003Z,102550.78
2023-04-03T07:24:24.397Z,102545.72
2023-04-03T07:26:51.824Z,102546.03
2023-04-03T07:29:18.282Z,102551.59
2023-04-03T07:31:45.790Z,102552.13
2023-04-03T07:34:12.490Z,102557.50
2023-04-03T07:36:38.820Z,102555.97
2023-04-03T07:39:05.236Z,102558.84
2023-04-03T07:41:32.042Z,102556.47
2023-04-03T07:43:58.526Z,102553.06
2023-04-03T07:46:25.039Z,102551.22
2023-04-03T07:48:51.531Z,102557.38
2023-04-03T07:51:18.012Z,102549.34
2023-04-03T07:53:44.477Z,102560.03
2023-04-03T07:56:11.127Z,102559.72
2023-04-03T07:58:37.970Z,102563.19
2023-04-03T08:01:04.910Z,102555.19
2023-04-03T08:03:31.421Z,102551.84
2023-04-03T08:06:04.488Z,102560.59
2023-04-03T08:08:31.697Z,102554.19
2023-04-03T08:11:00.192Z,102554.59
2023-04-03T08:13:27.140Z,102552.19
2023-04-03T08:15:53.503Z,102558.81
2023-04-03T08:18:22.651Z,102562.13
2023-04-03T08:20:49.075Z,102552.50
2023-04-03T08:23:17.273Z,102547.56
2023-04-03T08:25:45.540Z,102553.38
2023-04-03T08:28:13.175Z,102555.97
2023-04-03T08:30:42.046Z,102562.47
2023-04-03T08:33:08.943Z,102564.31
2023-04-03T08:35:40.801Z,102568.25
2023-04-03T08:38:08.251Z,102574.13
2023-04-03T08:40:34.583Z,102565.69
2023-04-03T08:43:05.357Z,102568.66
2023-04-03T08:45:51.326Z,102568.75
2023-04-03T08:48:36.298Z,102568.09
2023-04-03T08:51:12.913Z,102571.44
2023-04-03T08:53:42.476Z,102572.63
2023-04-03T08:56:16.479Z,102564.59
2023-04-03T08:58:49.490Z,102562.31
2023-04-03T09:01:35.381Z,102563.03
2023-04-03T09:04:03.341Z,102560.06
2023-04-03T09:06:36.378Z,102566.41
2023-04-03T09:09:31.181Z,102575.25
2023-04-03T09:12:13.016Z,102562.78
2023-04-03T09:14:44.294Z,102564.91
2023-04-03T09:17:18.799Z,102564.59
2023-04-03T09:20:12.158Z,102577.47
2023-04-03T09:22:49.718Z,102571.66
2023-04-03T09:25:34.073Z,102573.75
2023-04-03T09:28:02.801Z,102573.00
2023-04-03T09:30:29.558Z,102572.53
2023-04-03T09:32:57.750Z,102573.69
2023-04-03T09:35:45.006Z,102569.06
2023-04-03T09:38:14.419Z,102564.22
2023-04-03T09:40:46.605Z,102557.19
2023-04-03T09:43:39.975Z,102569.34
2023-04-03T09:46:24.683Z,102559.75
2023-04-03T09:49:08.857Z,102551.19
2023-04-03T09:51:36.680Z,102556.44
2023-04-03T09:54:39.489Z,102555.19
2023-04-03T09:57:13.073Z,102564.31
2023-04-03T09:59:45.410Z,102548.69
2023-04-03T10:02:35.563Z,102548.09
2023-04-03T10:07:35.971Z,102546.00
2023-04-03T10:10:35.130Z,102545.81
2023-04-03T10:13:07.354Z,102537.13
2023-04-03T10:15:45.183Z,102542.75
2023-04-03T10:18:43.840Z,102539.69
2023-04-03T10:21:27.914Z,102537.09
2023-04-03T10:24:09.703Z,102538.25
2023-04-03T10:26:50.416Z,102536.19
2023-04-03T10:29:39.365Z,102527.31
2023-04-03T10:32:46.596Z,102527.47
2023-04-03T10:35:19.085Z,102522.41
2023-04-03T10:38:14.690Z,102523.16
2023-04-03T10:41:17.986Z,102528.41
2023-04-03T10:44:08.094Z,102523.16
2023-04-03T10:46:50.717Z,102527.13
2023-04-03T10:49:59.418Z,102529.41
2023-04-03T10:52:44.231Z,102518.75
2023-04-03T10:55:22.972Z,102514.78
2023-04-03T10:57:51.298Z,102520.91
2023-04-03T11:00:22.357Z,102505.50
2023-04-03T11:03:07.169Z,102498.63
2023-04-03T11:05:50.277Z,102506.13
2023-04-03T11:08:52.341Z,102510.06
2023-04-03T11:11:23.570Z,102499.38
2023-04-03T11:14:03.019Z,102507.88
2023-04-03T11:16:43.276Z,102508.56
2023-04-03T11:19:29.057Z,102499.63
2023-04-03T11:22:01.784Z,102495.56
2023-04-03T11:24:32.027Z,102483.97
2023-04-03T11:27:04.596Z,102491.69
2023-04-03T11:29:37.551Z,102484.91
2023-04-03T11:32:30.519Z,102478.84
2023-04-03T11:35:01.899Z,102477.06
2023-04-03T11:37:36.706Z,102469.75
2023-04-03T11:40:24.277Z,102473.56
2023-04-03T11:42:55.937Z,102470.13
2023-04-03T11:45:22.293Z,102470.47
2023-04-03T11:47:51.844Z,102465.31
2023-04-03T11:50:43.242Z,102469.94
2023-04-03T11:53:12.977Z,102464.50
2023-04-03T11:55:48.741Z,102452.00
2023-04-03T11:58:32.565Z,102465.81
2023-04-03T12:01:02.234Z,102444.53
2023-04-03T12:03:32.987Z,102443.03
2023-04-03T12:06:05.395Z,102437.00
2023-04-03T12:08:35.226Z,102432.78
2023-04-03T12:11:11.286Z,102438.25
2023-04-03T12:13:49.923Z,102429.03
2023-04-03T12:16:23.505Z,102434.09
2023-04-03T12:18:49.988Z,102417.38
2023-04-03T12:21:22.178Z,102428.44
2023-04-03T12:24:03.907Z,102422.56
2023-04-03T12:26:48.236Z,102429.69
2023-04-03T12:29:21.564Z,102421.53
2023-04-03T12:32:28.654Z,102415.03
2023-04-03T12:35:16.346Z,102415.69
2023-04-03T12:38:01.145Z,102420.25
2023-04-03T12:40:42.815Z,102415.63
2023-04-03T12:43:47.997Z,102418.56
2023-04-03T12:46:21.902Z,102412.25
2023-04-03T12:48:54.477Z,102414.16
2023-04-03T12:51:29.176Z,102405.75
2023-04-03T12:54:02.444Z,102417.63
2023-04-03T12:56:33.413Z,102406.19
2023-04-03T12:59:18.192Z,102410.72
2023-04-03T13:01:54.066Z,102403.03
2023-04-03T13:04:20.447Z,102395.06
2023-04-03T13:06:46.945Z,102390.94
2023-04-03T13:09:24.730Z,102395.06
2023-04-03T13:11:57.407Z,102399.63
2023-04-03T13:14:26.355Z,102376.13
2023-04-03T13:17:03.708Z,102392.06
2023-04-03T13:19:31.611Z,102383.94
2023-04-03T13:22:03.783Z,102376.66
2023-04-03T13:24:33.636Z,102378.03
2023-04-03T13:27:00.364Z,102374.28
2023-04-03T13:29:32.144Z,102372.63
2023-04-03T13:32:02.233Z,102369.66
2023-04-03T13:34:36.312Z,102362.41
2023-04-03T13:37:05.325Z,102371.75
2023-04-03T13:39:37.944Z,102366.88
2023-04-03T13:42:25.255Z,102365.50
2023-04-03T13:45:24.028Z,102361.16
2023-04-03T13:47:53.809Z,102352.22
2023-04-03T13:50:30.099Z,102343.41
2023-04-03T13:53:03.438Z,102329.34
2023-04-03T13:55:34.470Z,102335.22
2023-04-03T13:58:22.902Z,102337.72
2023-04-03T14:01:01.883Z,102333.69
2023-04-03T14:03:34.679Z,102329.78
2023-04-03T14:06:02.316Z,102325.66
2023-04-03T14:08:41.832Z,102319.50
2023-04-03T14:11:31.195Z,102321.03
2023-04-03T14:14:06.068Z,102329.16
2023-04-03T14:16:38.835Z,102310.78
2023-04-03T14:19:05.163Z,102316.81
2023-04-03T14:21:31.623Z,102310.94
2023-04-03T14:23:58.110Z,102315.59
2023-04-03T14:26:26.162Z,102320.44
2023-04-03T14:28:55.034Z,102317.25
2023-04-03T14:31:22.812Z,102307.84
2023-04-03T14:33:49.394Z,102305.25
2023-04-03T14:36:21.715Z,102306.78
2023-04-03T14:38:50.019Z,102305.66
2023-04-03T14:41:18.948Z,102304.03
2023-04-03T14:43:46.687Z,102300.19
2023-04-03T14:46:54.323Z,102297.00
2023-04-03T14:49:25.672Z,102302.72
2023-04-03T14:51:53.645Z,102294.50
2023-04-03T14:54:26.244Z,102299.19
2023-04-03T14:56:53.271Z,102296.38
2023-04-03T14:59:21.095Z,102292.78
2023-04-03T15:01:47.565Z,102280.81
2023-04-03T15:04:16.005Z,102283.72
2023-04-03T15:06:43.292Z,102284.72
2023-04-03T15:09:22.534Z,102288.38
2023-04-03T15:11:50.693Z,102291.69
2023-04-03T15:14:29.498Z,102284.41
2023-04-03T15:17:04.601Z,102287.72
2023-04-03T15:19:36.738Z,102283.13
2023-04-03T15:22:03.131Z,102272.16
2023-04-03T15:24:29.567Z,102291.22
2023-04-03T15:26:56.073Z,102280.94
2023-04-03T15:29:22.550Z,102282.16
2023-04-03T15:31:50.830Z,102277.44
2023-04-03T15:34:18.094Z,102282.44
2023-04-03T15:36:44.563Z,102275.78
2023-04-03T15:39:11.063Z,102288.91
2023-04-03T15:41:37.556Z,102288.63
2023-04-03T15:44:03.949Z,102283.03
2023-04-03T15:46:30.875Z,102280.97
2023-04-03T15:48:57.326Z,102280.91
2023-04-03T15:51:23.741Z,102288.75
2023-04-03T15:53:50.419Z,102291.50
2023-04-03T15:56:16.838Z,102286.66
2023-04-03T15:58:43.294Z,102283.13
2023-04-03T16:01:12.241Z,102288.91
2023-04-03T16:03:46.470Z,102297.06
2023-04-03T16:06:14.792Z,102292.59
2023-04-03T16:08:41.464Z,102295.75
2023-04-03T16:11:07.851Z,102289.50
2023-04-03T16:13:35.625Z,102292.91
2023-04-03T16:16:02.984Z,102296.34
2023-04-03T16:18:30.263Z,102289.34
2023-04-03T16:20:56.757Z,102295.81
2023-04-03T16:23:23.624Z,102295.22
2023-04-03T16:25:50.864Z,102289.22
2023-04-03T16:28:18.705Z,102296.38
2023-04-03T16:30:47.436Z,102300.22
2023-04-03T16:33:14.291Z,102297.31
2023-04-03T16:35:43.025Z,102299.47
2023-04-03T16:38:09.549Z,102305.31
2023-04-03T16:40:35.938Z,102308.00
2023-04-03T16:43:03.546Z,102304.03
2023-04-03T16:45:29.948Z,102301.31
2023-04-03T16:47:56.673Z,102305.88
2023-04-03T16:50:23.173Z,102311.94
2023-04-03T16:52:49.963Z,102311.25
2023-04-03T16:55:16.479Z,102317.06
2023-04-03T16:57:42.976Z,102311.41
2023-04-03T17:00:10.094Z,102318.13
2023-04-03T17:02:36.456Z,102321.88
2023-04-03T17:05:03.001Z,102320.22
2023-04-03T17:07:29.344Z,102319.81
2023-04-03T17:09:55.802Z,102318.94
2023-04-03T17:12:22.853Z,102312.22
2023-04-03T17:14:49.339Z,102314.66
2023-04-03T17:17:18.900Z,102328.84
2023-04-03T17:19:45.736Z,102318.56
2023-04-03T17:22:12.350Z,102321.97
2023-04-03T17:24:38.702Z,102322.00
2023-04-03T17:27:05.351Z,102332.22
2023-04-03T17:29:31.686Z,102324.88
2023-04-03T17:31:58.063Z,102325.03
2023-04-03T17:34:24.444Z,102328.94
2023-04-03T17:36:51.150Z,102330.63
2023-04-03T17:39:17.841Z,102328.75
2023-04-03T17:41:45.891Z,102327.91
2023-04-03T17:44:12.772Z,102325.81
2023-04-03T17:46:39.361Z,102325.16
2023-04-03T17:49:05.947Z,102329.56
2023-04-03T17:51:35.497Z,102331.41
2023-04-03T17:54:02.329Z,102339.63
2023-04-03T17:56:28.835Z,102342.28
2023-04-03T17:58:57.393Z,102340.94
2023-04-03T18:01:23.806Z,102340.94
2023-04-03T18:03:53.879Z,102337.69
2023-04-03T18:06:23.008Z,102350.56
2023-04-03T18:08:52.783Z,102345.66
2023-04-03T18:11:22.177Z,102350.25
2023-04-03T18:13:48.793Z,102351.47
2023-04-03T18:16:15.188Z,102359.53
2023-04-03T18:18:41.696Z,102359.22
2023-04-03T18:21:10.881Z,102360.06
2023-04-03T18:23:39.041Z,102359.03
2023-04-03T18:26:07.274Z,102357.38
2023-04-03T18:28:33.767Z,102356.91
2023-04-03T18:31:01.420Z,102359.59
2023-04-03T18:33:27.720Z,102358.59
2023-04-03T18:35:54.243Z,102358.34
2023-04-03T18:38:20.793Z,102364.91
2023-04-03T18:40:47.487Z,102369.03
2023-04-03T18:43:14.609Z,102372.38
2023-04-03T18:45:41.389Z,102379.97
2023-04-03T18:48:07.978Z,102372.28
2023-04-03T18:50:34.918Z,102370.50
2023-04-03T18:53:01.260Z,102377.63
2023-04-03T18:55:27.734Z,102377.63
2023-04-03T18:57:54.055Z,102382.94
2023-04-03T19:00:20.630Z,102375.94
2023-04-03T19:02:48.599Z,102384.13
2023-04-03T19:05:17.037Z,102392.00
2023-04-03T19:07:44.504Z,102389.75
2023-04-03T19:10:17.385Z,102390.41
2023-04-03T19:12:45.258Z,102400.00
2023-04-03T19:15:16.144Z,102400.91
2023-04-03T19:17:42.782Z,102403.63
2023-04-03T19:20:10.936Z,102415.34
2023-04-03T19:22:38.172Z,102410.81
2023-04-03T19:25:06.046Z,102408.38
2023-04-03T19:27:34.445Z,102416.13
2023-04-03T19:30:00.949Z,102415.00
2023-04-03T19:32:27.499Z,102418.53
2023-04-03T19:34:53.853Z,102416.44
2023-04-03T19:37:20.302Z,102417.09
2023-04-03T19:39:46.644Z,102419.69
2023-04-03T19:42:13.407Z,102424.69
2023-04-03T19:44:39.999Z,102414.00
2023-04-03T19:47:06.349Z,102417.34
2023-04-03T19:49:32.712Z,102412.84
2023-04-03T19:51:59.128Z,102418.56
2023-04-03T19:54:25.536Z,102416.94
2023-04-03T19:56:52.175Z,102424.59
2023-04-03T19:59:18.671Z,102414.03
2023-04-03T20:01:46.369Z,102424.22
2023-04-03T20:04:13.778Z,102421.84
2023-04-03T20:06:40.404Z,102421.00
2023-04-03T20:09:06.828Z,102422.56
2023-04-03T20:11:37.690Z,102428.09
2023-04-03T20:14:04.310Z,102424.94
2023-04-03T20:16:30.861Z,102433.03
2023-04-03T20:18:57.487Z,102431.22
2023-04-03T20:21:31.943Z,102430.69
2023-04-03T20:23:59.839Z,102434.53
2023-04-03T20:26:28.681Z,102430.56
2023-04-03T20:28:57.510Z,102434.41
2023-04-03T20:31:25.816Z,102429.91
2023-04-03T20:33:52.384Z,102436.03
2023-04-03T20:36:20.084Z,102432.34
2023-04-03T20:38:48.013Z,102429.97
2023-04-03T20:41:15.665Z,102437.22
2023-04-03T20:43:43.027Z,102437.59
2023-04-03T20:46:10.886Z,102430.50
2023-04-03T20:48:37.545Z,102429.41
2023-04-03T20:51:12.398Z,102435.41
2023-04-03T20:53:39.617Z,102439.19
2023-04-03T20:56:08.211Z,102432.25
2023-04-03T20:58:38.615Z,102435.41
2023-04-03T21:01:17.371Z,102439.56
2023-04-03T21:03:46.031Z,102438.53
2023-04-03T21:06:50.696Z,102434.66
2023-04-03T21:09:56.408Z,102441.41
2023-04-03T21:13:00.708Z,102432.50
2023-04-03T21:15:49.121Z,102431.81
2023-04-03T21:18:42.065Z,102430.84
2023-04-03T21:21:22.182Z,102433.88
2023-04-03T21:23:49.679Z,102429.50
2023-04-03T21:26:17.475Z,102430.16
2023-04-03T21:28:43.928Z,102439.91
2023-04-03T21:31:15.223Z,102441.94
2023-04-03T21:33:42.467Z,102440.28
2023-04-03T21:36:10.254Z,102444.31
2023-04-03T21:38:36.780Z,102438.59
2023-04-03T21:41:03.487Z,102434.22
2023-04-03T21:43:30.053Z,102432.38
2023-04-03T21:45:58.434Z,102426.84
2023-04-03T21:48:28.611Z,102431.72
2023-04-03T21:51:02.313Z,102433.25
2023-04-03T21:53:30.296Z,102433.41
2023-04-03T21:55:57.552Z,102439.47
2023-04-03T21:58:34.000Z,102439.47
2023-04-03T22:01:10.975Z,102432.88
2023-04-03T22:03:37.997Z,102438.25
2023-04-03T22:06:05.185Z,102435.72
2023-04-03T22:08:31.648Z,102442.16
2023-04-03T22:11:03.379Z,102439.28
2023-04-03T22:13:30.812Z,102440.81
2023-04-03T22:15:59.249Z,102444.19
2023-04-03T22:18:26.241Z,102446.06
2023-04-03T22:20:52.657Z,102440.69
2023-04-03T22:23:19.353Z,102448.25
2023-04-03T22:26:05.720Z,102446.06
2023-04-03T22:28:34.607Z,102442.50
2023-04-03T22:31:08.271Z,102441.00
2023-04-03T22:33:38.628Z,102441.00
2023-04-03T22:36:06.723Z,102439.84
2023-04-03T22:38:33.344Z,102436.31
2023-04-03T22:41:04.391Z,102440.16
2023-04-03T22:43:32.990Z,102443.53
2023-04-03T22:46:04.470Z,102432.44
2023-04-03T22:48:31.165Z,102433.28
2023-04-03T22:50:57.658Z,102424.19
2023-04-03T22:53:24.009Z,102419.78
2023-04-03T22:55:59.080Z,102416.78
2023-04-03T22:58:26.852Z,102420.31
2023-04-03T23:01:04.514Z,102421.97
2023-04-03T23:03:31.438Z,102422.47
2023-04-03T23:05:58.366Z,102419.06
2023-04-03T23:08:24.763Z,102412.84
2023-04-03T23:10:55.592Z,102415.53
2023-04-03T23:13:22.492Z,102411.31
2023-04-03T23:16:00.381Z,102411.63
2023-04-03T23:18:29.459Z,102417.34
2023-04-03T23:20:56.886Z,102418.34
2023-04-03T23:23:24.237Z,102412.28
2023-04-03T23:25:59.162Z,102411.59
2023-04-03T23:28:26.558Z,102416.84
2023-04-03T23:31:01.643Z,102414.50
2023-04-03T23:33:29.040Z,102411.47
2023-04-03T23:35:55.488Z,102414.81
2023-04-03T23:38:21.988Z,102417.88
2023-04-03T23:40:48.327Z,102415.00
2023-04-03T23:43:14.691Z,102418.91
2023-04-03T23:45:41.790Z,102429.13
2023-04-03T23:48:08.994Z,102429.53
2023-04-03T23:50:35.484Z,102426.47
2023-04-03T23:53:01.948Z,102425.44
2023-04-03T23:55:28.389Z,102423.75
2023-04-03T23:57:54.826Z,102426.63
